sensor_id;sensor_type;location;lat;lon;timestamp;pressure;altitude;pressure_sealevel;temperature;humidity
36192;BME280;22233;42.708;23.360;2022-10-26T00:02:19;95880.47;;;17.54;61.35
36192;BME280;22233;42.708;23.360;2022-10-26T00:04:44;95868.91;;;17.61;60.31
36192;BME280;22233;42.708;23.360;2022-10-26T00:07:10;95869.06;;;17.80;60.20
36192;BME280;22233;42.708;23.360;2022-10-26T00:09:35;95889.00;;;17.89;59.87
36192;BME280;22233;42.708;23.360;2022-10-26T00:12:01;95870.22;;;17.79;60.00
36192;BME280;22233;42.708;23.360;2022-10-26T00:14:26;95868.31;;;17.67;60.59
36192;BME280;22233;42.708;23.360;2022-10-26T00:16:52;95874.13;;;17.66;60.68
36192;BME280;22233;42.708;23.360;2022-10-26T00:19:17;95882.47;;;17.82;59.75
36192;BME280;22233;42.708;23.360;2022-10-26T00:21:43;95871.09;;;17.95;59.98
36192;BME280;22233;42.708;23.360;2022-10-26T00:24:10;95865.28;;;17.85;60.07
36192;BME280;22233;42.708;23.360;2022-10-26T00:26:36;95875.56;;;18.00;59.83
36192;BME280;22233;42.708;23.360;2022-10-26T00:29:02;95876.47;;;17.51;61.22
36192;BME280;22233;42.708;23.360;2022-10-26T00:31:27;95874.69;;;17.84;59.87
36192;BME280;22233;42.708;23.360;2022-10-26T00:33:53;95883.28;;;18.10;59.09
36192;BME280;22233;42.708;23.360;2022-10-26T00:36:20;95882.22;;;18.27;58.30
36192;BME280;22233;42.708;23.360;2022-10-26T00:38:53;95872.09;;;18.31;58.70
36192;BME280;22233;42.708;23.360;2022-10-26T00:41:25;95876.25;;;18.25;58.32
36192;BME280;22233;42.708;23.360;2022-10-26T00:43:52;95882.44;;;18.22;58.87
36192;BME280;22233;42.708;23.360;2022-10-26T00:46:23;95872.25;;;17.82;59.25
36192;BME280;22233;42.708;23.360;2022-10-26T00:49:02;95885.00;;;18.15;58.93
36192;BME280;22233;42.708;23.360;2022-10-26T00:51:43;95877.28;;;18.21;58.77
36192;BME280;22233;42.708;23.360;2022-10-26T00:54:13;95872.63;;;18.09;59.15
36192;BME280;22233;42.708;23.360;2022-10-26T00:56:44;95882.66;;;18.01;58.96
36192;BME280;22233;42.708;23.360;2022-10-26T00:59:11;95878.25;;;18.12;58.66
36192;BME280;22233;42.708;23.360;2022-10-26T01:01:42;95876.91;;;17.53;60.39
36192;BME280;22233;42.708;23.360;2022-10-26T01:04:09;95875.78;;;17.83;59.87
36192;BME280;22233;42.708;23.360;2022-10-26T01:06:35;95881.19;;;17.39;61.38
36192;BME280;22233;42.708;23.360;2022-10-26T01:09:02;95874.06;;;17.50;60.54
36192;BME280;22233;42.708;23.360;2022-10-26T01:11:28;95876.00;;;17.49;61.46
36192;BME280;22233;42.708;23.360;2022-10-26T01:13:54;95859.19;;;17.51;61.34
36192;BME280;22233;42.708;23.360;2022-10-26T01:16:36;95875.44;;;17.44;62.19
36192;BME280;22233;42.708;23.360;2022-10-26T01:19:32;95872.03;;;17.34;61.88
36192;BME280;22233;42.708;23.360;2022-10-26T01:27:33;95873.66;;;16.86;63.72
36192;BME280;22233;42.708;23.360;2022-10-26T01:35:20;95875.31;;;16.66;64.45
36192;BME280;22233;42.708;23.360;2022-10-26T01:37:57;95869.41;;;16.89;63.49
36192;BME280;22233;42.708;23.360;2022-10-26T01:40:45;95879.19;;;16.77;64.19
36192;BME280;22233;42.708;23.360;2022-10-26T01:43:14;95870.78;;;16.83;63.52
36192;BME280;22233;42.708;23.360;2022-10-26T01:45:42;95858.88;;;16.78;63.54
36192;BME280;22233;42.708;23.360;2022-10-26T01:48:11;95865.16;;;16.79;63.35
36192;BME280;22233;42.708;23.360;2022-10-26T01:50:39;95844.69;;;16.76;62.96
36192;BME280;22233;42.708;23.360;2022-10-26T01:53:06;95852.22;;;16.80;63.54
36192;BME280;22233;42.708;23.360;2022-10-26T01:55:44;95871.00;;;17.02;63.53
36192;BME280;22233;42.708;23.360;2022-10-26T02:12:14;95873.06;;;17.05;62.66
36192;BME280;22233;42.708;23.360;2022-10-26T02:17:25;95865.81;;;16.64;62.99
36192;BME280;22233;42.708;23.360;2022-10-26T02:20:04;95862.28;;;16.63;62.82
36192;BME280;22233;42.708;23.360;2022-10-26T02:23:02;95871.22;;;16.72;63.00
36192;BME280;22233;42.708;23.360;2022-10-26T02:25:31;95877.94;;;16.63;62.86
36192;BME280;22233;42.708;23.360;2022-10-26T02:28:03;95879.16;;;16.53;63.41
36192;BME280;22233;42.708;23.360;2022-10-26T02:30:31;95875.66;;;16.65;63.05
36192;BME280;22233;42.708;23.360;2022-10-26T02:32:57;95881.03;;;16.73;62.72
36192;BME280;22233;42.708;23.360;2022-10-26T02:35:27;95885.59;;;16.69;62.82
36192;BME280;22233;42.708;23.360;2022-10-26T02:37:56;95882.38;;;16.55;63.13
36192;BME280;22233;42.708;23.360;2022-10-26T02:40:26;95872.88;;;16.52;62.87
36192;BME280;22233;42.708;23.360;2022-10-26T02:42:53;95884.66;;;16.65;63.14
36192;BME280;22233;42.708;23.360;2022-10-26T02:45:23;95883.84;;;16.52;62.85
36192;BME280;22233;42.708;23.360;2022-10-26T02:47:51;95878.72;;;16.51;62.96
36192;BME280;22233;42.708;23.360;2022-10-26T02:50:20;95875.97;;;16.51;62.85
36192;BME280;22233;42.708;23.360;2022-10-26T02:55:30;95887.13;;;16.46;63.02
36192;BME280;22233;42.708;23.360;2022-10-26T02:58:01;95884.28;;;16.42;63.07
36192;BME280;22233;42.708;23.360;2022-10-26T03:00:28;95872.25;;;16.22;63.54
36192;BME280;22233;42.708;23.360;2022-10-26T03:02:57;95880.19;;;16.15;63.94
36192;BME280;22233;42.708;23.360;2022-10-26T03:05:28;95893.44;;;16.13;64.16
36192;BME280;22233;42.708;23.360;2022-10-26T03:07:55;95892.25;;;16.02;64.75
36192;BME280;22233;42.708;23.360;2022-10-26T03:10:21;95895.72;;;16.11;64.70
36192;BME280;22233;42.708;23.360;2022-10-26T03:12:46;95900.97;;;16.04;65.20
36192;BME280;22233;42.708;23.360;2022-10-26T03:15:12;95900.03;;;15.78;65.79
36192;BME280;22233;42.708;23.360;2022-10-26T03:17:38;95909.38;;;15.98;65.07
36192;BME280;22233;42.708;23.360;2022-10-26T03:20:04;95918.09;;;15.71;65.90
36192;BME280;22233;42.708;23.360;2022-10-26T03:22:29;95910.47;;;15.55;66.42
36192;BME280;22233;42.708;23.360;2022-10-26T03:24:55;95912.69;;;15.32;67.93
36192;BME280;22233;42.708;23.360;2022-10-26T03:27:20;95900.75;;;15.37;67.03
36192;BME280;22233;42.708;23.360;2022-10-26T03:29:46;95910.66;;;15.50;67.04
36192;BME280;22233;42.708;23.360;2022-10-26T03:32:11;95912.91;;;15.27;68.13
36192;BME280;22233;42.708;23.360;2022-10-26T03:34:36;95903.00;;;15.14;67.83
36192;BME280;22233;42.708;23.360;2022-10-26T03:37:02;95902.28;;;15.26;67.39
36192;BME280;22233;42.708;23.360;2022-10-26T03:39:27;95910.88;;;15.15;68.09
36192;BME280;22233;42.708;23.360;2022-10-26T03:41:53;95900.81;;;14.98;68.74
36192;BME280;22233;42.708;23.360;2022-10-26T03:44:19;95921.13;;;15.27;67.83
36192;BME280;22233;42.708;23.360;2022-10-26T03:46:45;95916.09;;;15.00;69.14
36192;BME280;22233;42.708;23.360;2022-10-26T03:49:10;95924.69;;;14.89;69.19
36192;BME280;22233;42.708;23.360;2022-10-26T03:51:35;95908.22;;;14.98;68.30
36192;BME280;22233;42.708;23.360;2022-10-26T03:54:01;95906.72;;;15.09;68.16
36192;BME280;22233;42.708;23.360;2022-10-26T03:56:26;95922.66;;;15.07;68.80
36192;BME280;22233;42.708;23.360;2022-10-26T03:58:51;95907.56;;;15.31;67.55
36192;BME280;22233;42.708;23.360;2022-10-26T04:01:17;95900.50;;;15.30;67.71
36192;BME280;22233;42.708;23.360;2022-10-26T04:03:42;95910.75;;;15.33;68.12
36192;BME280;22233;42.708;23.360;2022-10-26T04:06:08;95908.00;;;15.42;67.55
36192;BME280;22233;42.708;23.360;2022-10-26T04:08:33;95926.00;;;15.43;67.39
36192;BME280;22233;42.708;23.360;2022-10-26T04:10:59;95915.38;;;15.41;66.67
36192;BME280;22233;42.708;23.360;2022-10-26T04:13:24;95925.63;;;15.53;65.33
36192;BME280;22233;42.708;23.360;2022-10-26T04:15:50;95924.81;;;15.52;65.02
36192;BME280;22233;42.708;23.360;2022-10-26T04:18:15;95924.91;;;15.35;65.40
36192;BME280;22233;42.708;23.360;2022-10-26T04:20:41;95915.50;;;15.24;65.43
36192;BME280;22233;42.708;23.360;2022-10-26T04:23:19;95928.88;;;15.46;64.76
36192;BME280;22233;42.708;23.360;2022-10-26T04:25:45;95932.06;;;15.27;65.54
36192;BME280;22233;42.708;23.360;2022-10-26T04:28:12;95917.94;;;15.16;65.05
36192;BME280;22233;42.708;23.360;2022-10-26T04:30:38;95919.72;;;15.12;65.69
36192;BME280;22233;42.708;23.360;2022-10-26T04:33:04;95933.63;;;15.07;65.65
36192;BME280;22233;42.708;23.360;2022-10-26T04:35:30;95927.59;;;14.84;66.22
36192;BME280;22233;42.708;23.360;2022-10-26T04:37:57;95933.53;;;14.86;65.66
36192;BME280;22233;42.708;23.360;2022-10-26T04:40:23;95940.09;;;14.94;65.73
36192;BME280;22233;42.708;23.360;2022-10-26T04:42:48;95948.78;;;14.96;65.52
36192;BME280;22233;42.708;23.360;2022-10-26T04:45:14;95928.88;;;14.78;65.28
36192;BME280;22233;42.708;23.360;2022-10-26T04:47:40;95942.28;;;14.71;65.45
36192;BME280;22233;42.708;23.360;2022-10-26T04:50:06;95938.09;;;14.73;65.15
36192;BME280;22233;42.708;23.360;2022-10-26T04:52:33;95953.81;;;14.76;65.24
36192;BME280;22233;42.708;23.360;2022-10-26T04:54:58;95937.81;;;14.49;66.07
36192;BME280;22233;42.708;23.360;2022-10-26T04:57:24;95946.78;;;14.41;66.19
36192;BME280;22233;42.708;23.360;2022-10-26T04:59:49;95955.19;;;14.35;66.28
36192;BME280;22233;42.708;23.360;2022-10-26T05:02:14;95941.84;;;13.55;68.78
36192;BME280;22233;42.708;23.360;2022-10-26T05:04:40;95952.63;;;13.61;68.98
36192;BME280;22233;42.708;23.360;2022-10-26T05:07:05;95965.63;;;13.72;68.65
36192;BME280;22233;42.708;23.360;2022-10-26T05:09:31;95961.16;;;13.85;68.24
36192;BME280;22233;42.708;23.360;2022-10-26T05:11:56;95955.03;;;13.88;68.04
36192;BME280;22233;42.708;23.360;2022-10-26T05:14:22;95963.56;;;13.95;67.67
36192;BME280;22233;42.708;23.360;2022-10-26T05:16:49;95956.78;;;13.84;68.43
36192;BME280;22233;42.708;23.360;2022-10-26T05:19:14;95963.84;;;13.59;68.95
36192;BME280;22233;42.708;23.360;2022-10-26T05:21:40;95958.03;;;13.52;69.26
36192;BME280;22233;42.708;23.360;2022-10-26T05:24:05;95949.06;;;13.60;68.79
36192;BME280;22233;42.708;23.360;2022-10-26T05:26:31;95956.31;;;13.73;69.03
36192;BME280;22233;42.708;23.360;2022-10-26T05:28:56;95963.72;;;13.73;69.02
36192;BME280;22233;42.708;23.360;2022-10-26T05:31:22;95975.09;;;13.66;69.43
36192;BME280;22233;42.708;23.360;2022-10-26T05:33:50;95983.94;;;13.72;68.80
36192;BME280;22233;42.708;23.360;2022-10-26T05:36:17;95978.31;;;13.68;68.99
36192;BME280;22233;42.708;23.360;2022-10-26T05:38:42;95986.16;;;13.61;69.22
36192;BME280;22233;42.708;23.360;2022-10-26T05:41:08;95990.22;;;13.81;68.62
36192;BME280;22233;42.708;23.360;2022-10-26T05:43:33;95976.41;;;13.95;68.32
36192;BME280;22233;42.708;23.360;2022-10-26T05:45:59;95990.88;;;13.95;68.22
36192;BME280;22233;42.708;23.360;2022-10-26T05:48:24;95996.31;;;14.04;68.69
36192;BME280;22233;42.708;23.360;2022-10-26T05:50:49;96001.31;;;14.19;67.67
36192;BME280;22233;42.708;23.360;2022-10-26T05:53:15;96001.31;;;14.37;67.84
36192;BME280;22233;42.708;23.360;2022-10-26T05:55:41;95997.28;;;14.52;66.73
36192;BME280;22233;42.708;23.360;2022-10-26T05:58:11;95998.88;;;14.70;65.60
36192;BME280;22233;42.708;23.360;2022-10-26T06:00:48;96006.13;;;14.66;66.50
36192;BME280;22233;42.708;23.360;2022-10-26T06:03:50;96006.47;;;14.47;68.50
36192;BME280;22233;42.708;23.360;2022-10-26T06:06:17;96007.91;;;14.71;66.62
36192;BME280;22233;42.708;23.360;2022-10-26T06:08:43;96018.03;;;14.62;67.16
36192;BME280;22233;42.708;23.360;2022-10-26T06:11:09;95983.31;;;14.27;67.04
36192;BME280;22233;42.708;23.360;2022-10-26T06:13:34;96016.59;;;14.47;68.00
36192;BME280;22233;42.708;23.360;2022-10-26T06:16:25;96018.19;;;14.74;67.38
36192;BME280;22233;42.708;23.360;2022-10-26T06:24:26;96022.34;;;15.36;67.13
36192;BME280;22233;42.708;23.360;2022-10-26T06:32:26;96013.50;;;15.30;66.51
36192;BME280;22233;42.708;23.360;2022-10-26T06:35:03;96019.00;;;15.60;65.10
36192;BME280;22233;42.708;23.360;2022-10-26T06:37:36;96029.25;;;15.72;67.32
36192;BME280;22233;42.708;23.360;2022-10-26T06:40:02;96025.38;;;16.03;65.25
36192;BME280;22233;42.708;23.360;2022-10-26T06:42:30;96030.03;;;16.32;64.60
36192;BME280;22233;42.708;23.360;2022-10-26T06:44:56;96025.53;;;16.48;65.03
36192;BME280;22233;42.708;23.360;2022-10-26T06:47:42;96036.72;;;16.76;64.85
36192;BME280;22233;42.708;23.360;2022-10-26T06:50:24;96039.06;;;16.87;63.04
36192;BME280;22233;42.708;23.360;2022-10-26T06:53:08;96040.03;;;17.03;63.08
36192;BME280;22233;42.708;23.360;2022-10-26T06:55:42;96024.81;;;16.72;62.78
36192;BME280;22233;42.708;23.360;2022-10-26T06:58:19;96034.72;;;16.86;63.49
36192;BME280;22233;42.708;23.360;2022-10-26T07:00:47;96038.69;;;17.09;62.09
36192;BME280;22233;42.708;23.360;2022-10-26T07:03:13;96031.44;;;16.92;63.27
36192;BME280;22233;42.708;23.360;2022-10-26T07:05:39;96024.22;;;17.00;62.38
36192;BME280;22233;42.708;23.360;2022-10-26T07:08:05;96036.97;;;17.05;63.43
36192;BME280;22233;42.708;23.360;2022-10-26T07:10:30;96041.13;;;17.35;62.53
36192;BME280;22233;42.708;23.360;2022-10-26T07:12:56;96042.16;;;17.43;64.95
36192;BME280;22233;42.708;23.360;2022-10-26T07:15:22;96040.81;;;17.86;63.54
36192;BME280;22233;42.708;23.360;2022-10-26T07:17:48;96021.59;;;17.86;60.93
36192;BME280;22233;42.708;23.360;2022-10-26T07:20:15;96039.34;;;18.01;62.28
36192;BME280;22233;42.708;23.360;2022-10-26T07:22:41;96039.28;;;18.26;60.79
36192;BME280;22233;42.708;23.360;2022-10-26T07:25:07;96041.41;;;17.92;64.10
36192;BME280;22233;42.708;23.360;2022-10-26T07:27:33;96044.03;;;18.53;61.50
36192;BME280;22233;42.708;23.360;2022-10-26T07:29:58;96035.47;;;18.43;60.12
36192;BME280;22233;42.708;23.360;2022-10-26T07:32:24;96036.63;;;18.42;59.08
36192;BME280;22233;42.708;23.360;2022-10-26T07:34:49;96024.78;;;18.01;60.98
36192;BME280;22233;42.708;23.360;2022-10-26T07:37:14;96025.94;;;17.87;61.31
36192;BME280;22233;42.708;23.360;2022-10-26T07:39:40;96036.09;;;17.62;61.86
36192;BME280;22233;42.708;23.360;2022-10-26T07:42:05;96026.75;;;17.63;61.65
36192;BME280;22233;42.708;23.360;2022-10-26T07:44:30;96024.84;;;17.18;62.95
36192;BME280;22233;42.708;23.360;2022-10-26T07:46:56;96017.91;;;17.21;63.12
36192;BME280;22233;42.708;23.360;2022-10-26T07:49:22;96024.91;;;17.67;62.07
36192;BME280;22233;42.708;23.360;2022-10-26T07:51:47;96012.88;;;17.84;61.26
36192;BME280;22233;42.708;23.360;2022-10-26T07:54:13;96015.69;;;18.25;60.59
36192;BME280;22233;42.708;23.360;2022-10-26T07:56:38;96021.03;;;18.46;59.73
36192;BME280;22233;42.708;23.360;2022-10-26T07:59:03;96028.28;;;18.26;60.25
36192;BME280;22233;42.708;23.360;2022-10-26T08:01:29;96026.06;;;18.03;60.96
36192;BME280;22233;42.708;23.360;2022-10-26T08:03:54;96022.38;;;18.11;60.31
36192;BME280;22233;42.708;23.360;2022-10-26T08:06:21;96027.53;;;18.13;59.54
36192;BME280;22233;42.708;23.360;2022-10-26T08:08:47;96027.00;;;18.35;59.49
36192;BME280;22233;42.708;23.360;2022-10-26T08:11:12;96021.50;;;18.35;59.50
36192;BME280;22233;42.708;23.360;2022-10-26T08:13:38;96019.00;;;18.30;59.56
36192;BME280;22233;42.708;23.360;2022-10-26T08:16:04;96023.72;;;18.58;59.16
36192;BME280;22233;42.708;23.360;2022-10-26T08:18:30;96025.72;;;18.86;58.67
36192;BME280;22233;42.708;23.360;2022-10-26T08:21:01;96032.28;;;18.69;58.98
36192;BME280;22233;42.708;23.360;2022-10-26T08:23:27;96030.31;;;18.82;58.38
36192;BME280;22233;42.708;23.360;2022-10-26T08:25:57;96008.47;;;18.89;58.00
36192;BME280;22233;42.708;23.360;2022-10-26T08:28:23;96017.28;;;18.94;57.88
36192;BME280;22233;42.708;23.360;2022-10-26T08:30:48;96015.91;;;19.32;56.71
36192;BME280;22233;42.708;23.360;2022-10-26T08:33:19;96011.09;;;19.13;55.08
36192;BME280;22233;42.708;23.360;2022-10-26T08:35:45;96005.13;;;19.11;54.88
36192;BME280;22233;42.708;23.360;2022-10-26T08:38:11;96000.28;;;19.36;55.12
36192;BME280;22233;42.708;23.360;2022-10-26T08:40:39;96005.91;;;19.72;54.13
36192;BME280;22233;42.708;23.360;2022-10-26T08:45:59;96013.72;;;20.05;53.87
36192;BME280;22233;42.708;23.360;2022-10-26T08:48:32;96010.03;;;19.66;54.14
36192;BME280;22233;42.708;23.360;2022-10-26T08:51:20;96004.94;;;19.68;53.88
36192;BME280;22233;42.708;23.360;2022-10-26T08:58:47;96020.59;;;19.64;54.32
36192;BME280;22233;42.708;23.360;2022-10-26T09:01:16;96021.69;;;19.43;54.54
36192;BME280;22233;42.708;23.360;2022-10-26T09:03:42;96015.28;;;19.87;53.47
36192;BME280;22233;42.708;23.360;2022-10-26T09:06:29;96025.50;;;20.02;52.88
36192;BME280;22233;42.708;23.360;2022-10-26T09:09:07;96020.28;;;19.81;53.21
36192;BME280;22233;42.708;23.360;2022-10-26T09:22:52;96011.44;;;19.91;52.08
36192;BME280;22233;42.708;23.360;2022-10-26T09:25:22;96013.78;;;20.44;50.52
36192;BME280;22233;42.708;23.360;2022-10-26T09:27:59;95999.97;;;20.44;50.50
36192;BME280;22233;42.708;23.360;2022-10-26T09:30:25;96005.91;;;20.62;49.83
36192;BME280;22233;42.708;23.360;2022-10-26T09:33:03;96011.56;;;20.89;48.59
36192;BME280;22233;42.708;23.360;2022-10-26T09:35:59;96006.16;;;20.96;48.42
36192;BME280;22233;42.708;23.360;2022-10-26T09:38:29;96001.75;;;21.14;47.92
36192;BME280;22233;42.708;23.360;2022-10-26T09:43:49;95990.16;;;21.28;46.42
36192;BME280;22233;42.708;23.360;2022-10-26T09:46:24;95989.66;;;21.00;46.95
36192;BME280;22233;42.708;23.360;2022-10-26T09:48:55;95986.19;;;21.26;46.51
36192;BME280;22233;42.708;23.360;2022-10-26T09:51:22;95991.84;;;21.33;46.50
36192;BME280;22233;42.708;23.360;2022-10-26T09:53:48;95989.25;;;21.21;46.87
36192;BME280;22233;42.708;23.360;2022-10-26T09:56:14;95979.88;;;21.25;46.03
36192;BME280;22233;42.708;23.360;2022-10-26T09:58:43;95991.91;;;21.60;45.57
36192;BME280;22233;42.708;23.360;2022-10-26T10:01:30;95986.22;;;21.06;46.93
36192;BME280;22233;42.708;23.360;2022-10-26T10:07:11;95984.91;;;21.92;45.93
36192;BME280;22233;42.708;23.360;2022-10-26T10:09:39;95968.88;;;22.05;45.58
36192;BME280;22233;42.708;23.360;2022-10-26T10:12:05;95977.31;;;22.43;44.58
36192;BME280;22233;42.708;23.360;2022-10-26T10:14:55;95962.34;;;22.47;44.28
36192;BME280;22233;42.708;23.360;2022-10-26T10:17:22;95971.84;;;21.89;43.60
36192;BME280;22233;42.708;23.360;2022-10-26T10:19:48;95968.66;;;21.87;43.95
36192;BME280;22233;42.708;23.360;2022-10-26T10:24:40;95964.03;;;22.56;42.96
36192;BME280;22233;42.708;23.360;2022-10-26T10:29:54;95957.13;;;22.72;41.61
36192;BME280;22233;42.708;23.360;2022-10-26T10:32:22;95964.00;;;22.86;41.73
36192;BME280;22233;42.708;23.360;2022-10-26T10:34:49;95960.63;;;23.03;40.84
36192;BME280;22233;42.708;23.360;2022-10-26T10:37:23;95963.25;;;23.30;39.19
36192;BME280;22233;42.708;23.360;2022-10-26T10:39:54;95962.91;;;22.98;40.27
36192;BME280;22233;42.708;23.360;2022-10-26T10:42:22;95952.81;;;22.79;40.53
36192;BME280;22233;42.708;23.360;2022-10-26T10:44:53;95949.75;;;23.25;40.19
36192;BME280;22233;42.708;23.360;2022-10-26T10:47:24;95953.69;;;23.24;40.45
36192;BME280;22233;42.708;23.360;2022-10-26T10:52:33;95940.34;;;23.85;39.20
36192;BME280;22233;42.708;23.360;2022-10-26T11:00:24;95926.09;;;22.97;40.65
36192;BME280;22233;42.708;23.360;2022-10-26T11:03:14;95929.69;;;23.39;40.29
36192;BME280;22233;42.708;23.360;2022-10-26T11:11:06;95925.81;;;23.02;40.66
36192;BME280;22233;42.708;23.360;2022-10-26T11:13:47;95925.53;;;23.66;39.91
36192;BME280;22233;42.708;23.360;2022-10-26T11:16:19;95928.13;;;23.97;39.32
36192;BME280;22233;42.708;23.360;2022-10-26T11:21:28;95912.03;;;24.27;38.49
36192;BME280;22233;42.708;23.360;2022-10-26T11:23:56;95913.53;;;24.14;38.14
36192;BME280;22233;42.708;23.360;2022-10-26T11:26:50;95919.47;;;24.12;38.65
36192;BME280;22233;42.708;23.360;2022-10-26T11:37:12;95909.19;;;23.50;38.28
36192;BME280;22233;42.708;23.360;2022-10-26T11:39:59;95906.44;;;23.58;38.49
36192;BME280;22233;42.708;23.360;2022-10-26T11:42:37;95907.31;;;23.69;37.63
36192;BME280;22233;42.708;23.360;2022-10-26T11:45:14;95908.38;;;24.12;37.01
36192;BME280;22233;42.708;23.360;2022-10-26T11:47:47;95881.44;;;24.13;36.55
36192;BME280;22233;42.708;23.360;2022-10-26T11:52:43;95906.66;;;24.74;35.47
36192;BME280;22233;42.708;23.360;2022-10-26T11:55:10;95891.13;;;24.59;35.30
36192;BME280;22233;42.708;23.360;2022-10-26T11:57:36;95902.91;;;24.34;34.91
36192;BME280;22233;42.708;23.360;2022-10-26T12:00:06;95904.47;;;24.24;35.16
36192;BME280;22233;42.708;23.360;2022-10-26T12:02:37;95896.47;;;24.12;34.84
36192;BME280;22233;42.708;23.360;2022-10-26T12:05:05;95901.03;;;24.56;34.18
36192;BME280;22233;42.708;23.360;2022-10-26T12:07:35;95904.47;;;24.21;34.56
36192;BME280;22233;42.708;23.360;2022-10-26T12:10:03;95896.63;;;24.48;34.79
36192;BME280;22233;42.708;23.360;2022-10-26T12:12:45;95885.63;;;24.84;34.45
36192;BME280;22233;42.708;23.360;2022-10-26T12:15:28;95899.56;;;25.02;32.98
36192;BME280;22233;42.708;23.360;2022-10-26T12:18:06;95886.47;;;25.20;32.40
36192;BME280;22233;42.708;23.360;2022-10-26T12:23:15;95875.72;;;25.90;32.19
36192;BME280;22233;42.708;23.360;2022-10-26T12:25:41;95899.19;;;25.61;32.66
36192;BME280;22233;42.708;23.360;2022-10-26T12:34:02;95889.22;;;25.92;32.78
36192;BME280;22233;42.708;23.360;2022-10-26T12:39:35;95884.31;;;26.28;30.88
36192;BME280;22233;42.708;23.360;2022-10-26T12:47:08;95892.63;;;26.36;30.26
36192;BME280;22233;42.708;23.360;2022-10-26T12:55:14;95889.34;;;26.66;29.96
36192;BME280;22233;42.708;23.360;2022-10-26T13:00:31;95887.78;;;26.58;30.57
36192;BME280;22233;42.708;23.360;2022-10-26T13:06:00;95887.16;;;26.14;31.12
36192;BME280;22233;42.708;23.360;2022-10-26T13:08:28;95879.72;;;25.64;31.47
36192;BME280;22233;42.708;23.360;2022-10-26T13:11:12;95883.63;;;26.03;31.14
36192;BME280;22233;42.708;23.360;2022-10-26T13:13:40;95877.66;;;25.94;30.72
36192;BME280;22233;42.708;23.360;2022-10-26T13:16:10;95884.00;;;26.08;30.29
36192;BME280;22233;42.708;23.360;2022-10-26T13:18:44;95891.19;;;25.81;30.88
36192;BME280;22233;42.708;23.360;2022-10-26T13:21:14;95891.97;;;25.99;29.94
36192;BME280;22233;42.708;23.360;2022-10-26T13:26:29;95888.81;;;25.94;29.27
36192;BME280;22233;42.708;23.360;2022-10-26T13:28:57;95895.91;;;26.13;28.74
36192;BME280;22233;42.708;23.360;2022-10-26T13:34:09;95877.28;;;25.84;28.41
36192;BME280;22233;42.708;23.360;2022-10-26T13:36:42;95902.16;;;26.45;27.40
36192;BME280;22233;42.708;23.360;2022-10-26T13:39:13;95890.88;;;26.74;26.90
36192;BME280;22233;42.708;23.360;2022-10-26T13:41:43;95904.16;;;27.15;26.78
36192;BME280;22233;42.708;23.360;2022-10-26T13:47:15;95884.56;;;26.66;26.61
36192;BME280;22233;42.708;23.360;2022-10-26T13:49:47;95888.41;;;26.90;26.40
36192;BME280;22233;42.708;23.360;2022-10-26T13:52:18;95908.88;;;26.55;27.03
36192;BME280;22233;42.708;23.360;2022-10-26T13:54:53;95906.88;;;26.56;27.29
36192;BME280;22233;42.708;23.360;2022-10-26T13:57:27;95905.03;;;26.20;27.18
36192;BME280;22233;42.708;23.360;2022-10-26T13:59:54;95907.31;;;26.54;27.26
36192;BME280;22233;42.708;23.360;2022-10-26T14:02:27;95906.16;;;26.44;27.41
36192;BME280;22233;42.708;23.360;2022-10-26T14:05:04;95902.91;;;26.53;27.18
36192;BME280;22233;42.708;23.360;2022-10-26T14:07:34;95906.16;;;26.34;27.43
36192;BME280;22233;42.708;23.360;2022-10-26T14:10:03;95905.44;;;26.22;27.61
36192;BME280;22233;42.708;23.360;2022-10-26T14:12:29;95903.09;;;26.06;27.60
36192;BME280;22233;42.708;23.360;2022-10-26T14:15:15;95909.09;;;25.94;27.81
36192;BME280;22233;42.708;23.360;2022-10-26T14:17:40;95911.47;;;25.81;27.86
36192;BME280;22233;42.708;23.360;2022-10-26T14:20:16;95901.97;;;25.46;28.30
36192;BME280;22233;42.708;23.360;2022-10-26T14:22:43;95899.16;;;25.14;28.58
36192;BME280;22233;42.708;23.360;2022-10-26T14:27:49;95878.53;;;25.33;28.46
36192;BME280;22233;42.708;23.360;2022-10-26T14:30:35;95910.28;;;25.14;28.71
36192;BME280;22233;42.708;23.360;2022-10-26T14:33:16;95914.56;;;24.61;29.53
36192;BME280;22233;42.708;23.360;2022-10-26T14:35:42;95896.69;;;24.55;29.47
36192;BME280;22233;42.708;23.360;2022-10-26T14:38:23;95906.66;;;24.74;29.22
36192;BME280;22233;42.708;23.360;2022-10-26T14:40:55;95902.97;;;24.45;29.66
36192;BME280;22233;42.708;23.360;2022-10-26T14:43:22;95914.69;;;24.06;30.06
36192;BME280;22233;42.708;23.360;2022-10-26T14:45:50;95912.38;;;24.15;30.32
36192;BME280;22233;42.708;23.360;2022-10-26T14:51:00;95908.28;;;23.91;30.08
36192;BME280;22233;42.708;23.360;2022-10-26T14:53:50;95914.44;;;23.66;30.50
36192;BME280;22233;42.708;23.360;2022-10-26T14:58:50;95900.97;;;23.17;31.21
36192;BME280;22233;42.708;23.360;2022-10-26T15:03:50;95919.97;;;23.66;30.15
36192;BME280;22233;42.708;23.360;2022-10-26T15:09:03;95928.75;;;23.24;30.45
36192;BME280;22233;42.708;23.360;2022-10-26T15:11:32;95916.75;;;23.09;30.75
36192;BME280;22233;42.708;23.360;2022-10-26T15:13:58;95931.25;;;22.99;31.09
36192;BME280;22233;42.708;23.360;2022-10-26T15:16:26;95919.44;;;22.64;31.37
36192;BME280;22233;42.708;23.360;2022-10-26T15:19:14;95939.16;;;22.97;31.20
36192;BME280;22233;42.708;23.360;2022-10-26T15:21:45;95935.38;;;22.74;31.49
36192;BME280;22233;42.708;23.360;2022-10-26T15:26:58;95949.44;;;21.98;32.64
36192;BME280;22233;42.708;23.360;2022-10-26T15:30:07;95953.38;;;22.27;32.60
36192;BME280;22233;42.708;23.360;2022-10-26T15:34:49;95958.06;;;22.23;32.94
36192;BME280;22233;42.708;23.360;2022-10-26T15:37:29;95954.34;;;22.39;32.88